Time;durP1;ratioP1;P1;durP2;ratioP2;P2;SDS_P1;SDS_P2;PMS_P1;PMS_P2;Temp;Humidity;BMP_temperature;BMP_pressure;BME280_temperature;BME280_humidity;BME280_pressure;Samples;Min_cycle;Max_cycle;Signal;HPM_P1;HPM_P2
2023/12/08 00:02:20;;;;;;;9.55;4.47;;;3.20;99.90;;;;;;4939520;29;20043;-80
2023/12/08 00:04:47;;;;;;;10.30;4.80;;;3.30;99.90;;;;;;4908332;29;20055;-80
2023/12/08 00:07:17;;;;;;;10.93;5.57;;;3.30;99.90;;;;;;4908339;29;20047;-80
2023/12/08 00:09:44;;;;;;;10.60;5.03;;;3.30;99.90;;;;;;4939523;29;20508;-80
2023/12/08 00:12:11;;;;;;;7.22;3.95;;;3.30;99.90;;;;;;4923801;29;20126;-80
2023/12/08 00:14:38;;;;;;;9.15;4.53;;;3.20;99.90;;;;;;4923859;29;20048;-80
2023/12/08 00:17:05;;;;;;;7.80;3.88;;;3.30;99.90;;;;;;4939140;29;20453;-80
2023/12/08 00:19:32;;;;;;;8.07;4.28;;;3.20;99.90;;;;;;4939083;29;20114;-80
2023/12/08 00:22:00;;;;;;;9.32;4.50;;;3.30;99.90;;;;;;4939211;29;20511;-80
2023/12/08 00:24:27;;;;;;;7.85;3.80;;;3.30;99.90;;;;;;4971192;28;20047;-80
2023/12/08 00:26:54;;;;;;;8.02;3.88;;;3.20;99.90;;;;;;4923211;29;20387;-80
2023/12/08 00:29:21;;;;;;;7.05;3.63;;;3.20;99.90;;;;;;4920303;29;20517;-80
2023/12/08 00:31:48;;;;;;;7.63;4.00;;;3.20;99.90;;;;;;4945865;29;20110;-80
2023/12/08 00:34:16;;;;;;;8.23;4.20;;;3.20;99.90;;;;;;4938520;28;21300;-79
2023/12/08 00:36:44;;;;;;;7.32;4.10;;;3.20;99.90;;;;;;4970745;28;20138;-80
2023/12/08 00:39:11;;;;;;;9.55;4.70;;;3.20;99.90;;;;;;4938959;29;20063;-80
2023/12/08 00:41:38;;;;;;;9.05;3.85;;;3.20;99.90;;;;;;4923314;29;20047;-79
2023/12/08 00:44:08;;;;;;;7.60;3.95;;;3.20;99.90;;;;;;4923093;29;20079;-79
2023/12/08 00:46:35;;;;;;;11.18;4.90;;;3.20;99.90;;;;;;4923093;29;20142;-81
2023/12/08 00:49:02;;;;;;;8.70;4.38;;;3.20;99.90;;;;;;4939021;29;20130;-80
2023/12/08 00:51:29;;;;;;;10.18;4.57;;;3.20;99.90;;;;;;4938845;29;20075;-80
2023/12/08 00:53:57;;;;;;;8.63;3.35;;;3.20;99.90;;;;;;4938658;29;20050;-80
2023/12/08 00:56:24;;;;;;;7.47;4.07;;;3.20;99.90;;;;;;4938267;29;20054;-80
2023/12/08 00:58:51;;;;;;;7.80;3.90;;;3.20;99.90;;;;;;4921981;29;20050;-82
2023/12/08 01:01:19;;;;;;;8.30;4.10;;;3.20;99.90;;;;;;4938393;29;20054;-81
2023/12/08 01:03:46;;;;;;;6.60;3.67;;;3.20;99.90;;;;;;4970339;28;20505;-81
2023/12/08 01:06:13;;;;;;;6.43;2.92;;;3.20;99.90;;;;;;4954591;29;20089;-80
2023/12/08 01:08:42;;;;;;;6.85;3.70;;;3.20;99.90;;;;;;4922164;29;20078;-81
2023/12/08 01:11:09;;;;;;;6.22;3.30;;;3.20;99.90;;;;;;4938177;29;20205;-80
2023/12/08 01:13:36;;;;;;;6.22;3.20;;;3.30;99.90;;;;;;4955407;29;20083;-80
2023/12/08 01:16:06;;;;;;;6.50;2.90;;;3.20;99.90;;;;;;4938394;29;20134;-80
2023/12/08 01:18:33;;;;;;;8.00;3.85;;;3.20;99.90;;;;;;4955417;29;20039;-80
2023/12/08 01:21:01;;;;;;;6.80;3.10;;;3.20;99.90;;;;;;4938172;29;20041;-80
2023/12/08 01:23:28;;;;;;;9.27;4.47;;;3.30;99.90;;;;;;4933361;29;20150;-80
2023/12/08 01:25:55;;;;;;;7.60;3.67;;;3.20;99.90;;;;;;4942351;29;20087;-80
2023/12/08 01:28:22;;;;;;;7.97;3.78;;;3.20;99.90;;;;;;4947938;29;20102;-80
2023/12/08 01:30:49;;;;;;;7.20;2.95;;;3.20;99.90;;;;;;4948581;29;20056;-80
2023/12/08 01:33:16;;;;;;;6.22;2.53;;;3.20;99.90;;;;;;4923282;29;20051;-80
2023/12/08 01:35:43;;;;;;;6.72;3.50;;;3.20;99.90;;;;;;4938366;29;20047;-80
2023/12/08 01:38:11;;;;;;;7.07;3.08;;;3.20;99.90;;;;;;4938140;29;20051;-80
2023/12/08 01:40:41;;;;;;;5.78;3.13;;;3.20;99.90;;;;;;4937965;29;20110;-81
2023/12/08 01:43:12;;;;;;;5.47;2.60;;;3.20;99.90;;;;;;4938383;29;20391;-80
2023/12/08 01:45:42;;;;;;;4.80;2.53;;;3.20;99.90;;;;;;4954062;29;20051;-80
2023/12/08 01:48:10;;;;;;;6.15;2.90;;;3.20;99.90;;;;;;4937897;29;20509;-80
2023/12/08 01:50:38;;;;;;;6.03;2.50;;;3.20;99.90;;;;;;4937909;29;20085;-79
2023/12/08 01:53:09;;;;;;;5.65;2.22;;;3.20;99.90;;;;;;4938371;29;20050;-79
2023/12/08 01:55:36;;;;;;;5.85;2.35;;;3.20;99.90;;;;;;4940731;28;20166;-79
2023/12/08 01:58:03;;;;;;;7.18;3.45;;;3.20;99.90;;;;;;4953912;29;20051;-80
2023/12/08 02:00:30;;;;;;;6.68;2.75;;;3.20;99.90;;;;;;4969939;28;20103;-80
2023/12/08 02:02:58;;;;;;;6.03;3.17;;;3.20;99.90;;;;;;4970182;28;20047;-80
2023/12/08 02:05:27;;;;;;;5.55;2.97;;;3.20;99.90;;;;;;4922157;29;20574;-80
2023/12/08 02:07:54;;;;;;;7.53;3.17;;;3.20;99.90;;;;;;4937785;29;20059;-80
2023/12/08 02:10:22;;;;;;;5.78;2.92;;;3.20;99.90;;;;;;4921962;29;20043;-80
2023/12/08 02:12:49;;;;;;;6.05;2.75;;;3.30;99.90;;;;;;4937956;29;20051;-80
2023/12/08 02:15:16;;;;;;;5.72;2.67;;;3.30;99.90;;;;;;4937711;29;20099;-80
2023/12/08 02:17:48;;;;;;;5.72;2.60;;;3.30;99.90;;;;;;4937716;29;20131;-80
2023/12/08 02:20:16;;;;;;;6.95;2.92;;;3.30;99.90;;;;;;4953727;29;20144;-80
2023/12/08 02:22:43;;;;;;;6.07;2.50;;;3.30;99.90;;;;;;4953718;29;20122;-80
2023/12/08 02:25:10;;;;;;;5.50;2.70;;;3.30;99.90;;;;;;4937638;29;20145;-80
2023/12/08 02:27:37;;;;;;;3.72;1.80;;;3.30;99.90;;;;;;4921690;29;20405;-81
2023/12/08 02:30:05;;;;;;;5.43;2.55;;;3.40;99.90;;;;;;4937715;28;20051;-80
2023/12/08 02:32:38;;;;;;;5.93;3.15;;;3.40;99.90;;;;;;4937773;29;20047;-79
2023/12/08 02:35:08;;;;;;;5.28;2.50;;;3.40;99.90;;;;;;4953011;29;20043;-80
2023/12/08 02:37:44;;;;;;;5.63;2.88;;;3.40;99.90;;;;;;4953124;29;20106;-80
2023/12/08 02:40:13;;;;;;;4.28;2.22;;;3.40;99.90;;;;;;4937146;29;20054;-80
2023/12/08 02:42:40;;;;;;;6.68;2.70;;;3.40;99.90;;;;;;4937479;29;20049;-80
2023/12/08 02:45:08;;;;;;;5.50;2.72;;;3.40;99.90;;;;;;4925915;29;20043;-80
2023/12/08 02:47:35;;;;;;;5.10;2.42;;;3.40;99.90;;;;;;4957071;29;20047;-80
2023/12/08 02:50:03;;;;;;;6.15;2.72;;;3.40;99.90;;;;;;4956892;28;20050;-80
2023/12/08 02:52:30;;;;;;;5.80;2.75;;;3.40;99.90;;;;;;4956656;29;20051;-81
2023/12/08 02:54:57;;;;;;;5.80;2.90;;;3.30;99.90;;;;;;4972549;28;20058;-81
2023/12/08 02:57:24;;;;;;;5.63;2.70;;;3.30;99.90;;;;;;4956424;29;20059;-80
2023/12/08 02:59:52;;;;;;;6.22;2.97;;;3.30;99.90;;;;;;4940917;29;20135;-80
2023/12/08 03:02:19;;;;;;;5.07;2.33;;;3.30;99.90;;;;;;4940682;29;20047;-80
2023/12/08 03:04:46;;;;;;;5.85;3.75;;;3.30;99.90;;;;;;4972400;28;20047;-80
2023/12/08 03:07:13;;;;;;;5.78;2.92;;;3.30;99.90;;;;;;4924864;29;20518;-79
2023/12/08 03:09:41;;;;;;;5.57;2.92;;;3.20;99.90;;;;;;4956526;29;20066;-79
2023/12/08 03:12:08;;;;;;;5.13;2.38;;;3.20;99.90;;;;;;4940639;29;20047;-79
2023/12/08 03:14:35;;;;;;;6.60;2.90;;;3.20;99.90;;;;;;4956294;28;20098;-80
2023/12/08 03:17:03;;;;;;;4.97;2.28;;;3.20;99.90;;;;;;4922112;29;20062;-79
2023/12/08 03:19:30;;;;;;;4.97;2.78;;;3.20;99.90;;;;;;4939921;29;20047;-79
2023/12/08 03:21:57;;;;;;;6.10;2.80;;;3.20;99.90;;;;;;4940316;29;20051;-80
2023/12/08 03:24:24;;;;;;;5.88;2.67;;;3.10;99.90;;;;;;4940599;29;20141;-79
2023/12/08 03:26:51;;;;;;;4.93;2.45;;;3.10;99.90;;;;;;4956708;29;20094;-80
2023/12/08 03:29:18;;;;;;;6.25;2.88;;;3.10;99.90;;;;;;4955927;29;20097;-80
2023/12/08 03:31:48;;;;;;;7.47;3.47;;;3.10;99.90;;;;;;4940468;29;20059;-79
2023/12/08 03:34:18;;;;;;;5.15;2.55;;;3.10;99.90;;;;;;4939907;29;20138;-81
2023/12/08 03:36:48;;;;;;;6.72;3.13;;;3.10;99.90;;;;;;4925109;29;20134;-80
2023/12/08 03:39:18;;;;;;;6.45;3.20;;;3.10;99.90;;;;;;4940121;29;20066;-79
2023/12/08 03:41:47;;;;;;;5.47;2.35;;;3.10;99.90;;;;;;4940278;29;20201;-80
2023/12/08 03:44:14;;;;;;;6.15;2.90;;;3.10;99.90;;;;;;4940091;29;20071;-80
2023/12/08 03:46:45;;;;;;;6.30;3.03;;;3.10;99.90;;;;;;4908536;29;20058;-80
2023/12/08 03:49:15;;;;;;;7.68;3.75;;;3.10;99.90;;;;;;4971327;28;20496;-79
2023/12/08 03:51:42;;;;;;;8.32;3.67;;;3.10;99.90;;;;;;4940235;29;20451;-80
2023/12/08 03:54:09;;;;;;;6.13;2.85;;;3.10;99.90;;;;;;4955344;28;20125;-80
2023/12/08 03:56:36;;;;;;;7.38;2.90;;;3.10;99.90;;;;;;4924012;29;20054;-80
2023/12/08 03:59:03;;;;;;;5.88;3.25;;;3.10;99.90;;;;;;4939570;29;20044;-80
2023/12/08 04:01:30;;;;;;;7.13;3.15;;;3.10;99.90;;;;;;4971739;28;20062;-80
2023/12/08 04:03:57;;;;;;;7.28;3.53;;;3.10;99.90;;;;;;4939579;28;20040;-78
2023/12/08 04:06:24;;;;;;;7.47;3.63;;;3.10;99.90;;;;;;4955814;29;20055;-80
2023/12/08 04:08:51;;;;;;;7.22;3.63;;;3.10;99.90;;;;;;4939387;29;20413;-80
2023/12/08 04:11:19;;;;;;;7.28;2.80;;;3.10;99.90;;;;;;4939860;29;20051;-80
2023/12/08 04:13:49;;;;;;;6.70;3.58;;;3.10;99.90;;;;;;4939209;29;20061;-80
2023/12/08 04:16:19;;;;;;;5.88;3.00;;;3.10;99.90;;;;;;4923560;29;20051;-79
2023/12/08 04:18:49;;;;;;;7.65;3.22;;;3.10;99.90;;;;;;4955213;29;20522;-80
2023/12/08 04:21:17;;;;;;;6.30;2.95;;;3.10;99.90;;;;;;4955200;29;20051;-79
2023/12/08 04:23:45;;;;;;;8.05;3.42;;;3.10;99.90;;;;;;4954860;29;20047;-80
2023/12/08 04:26:12;;;;;;;5.72;3.13;;;3.10;99.90;;;;;;4955352;29;20051;-80
2023/12/08 04:28:40;;;;;;;6.57;3.40;;;3.10;99.90;;;;;;4939394;29;20509;-81
2023/12/08 04:31:07;;;;;;;6.38;3.40;;;3.10;99.90;;;;;;4938970;29;20043;-80
2023/12/08 04:33:34;;;;;;;7.00;3.33;;;3.10;99.90;;;;;;4954882;29;20050;-80
2023/12/08 04:36:02;;;;;;;6.75;3.10;;;3.10;99.90;;;;;;4954761;29;20047;-80
2023/12/08 04:38:32;;;;;;;6.95;3.42;;;3.10;99.90;;;;;;4923862;29;20137;-79
2023/12/08 04:40:59;;;;;;;9.07;4.10;;;3.10;99.90;;;;;;4970796;28;20051;-79
2023/12/08 04:43:26;;;;;;;6.63;2.97;;;3.10;99.90;;;;;;4938934;29;20047;-79
2023/12/08 04:45:53;;;;;;;7.32;3.03;;;3.10;99.90;;;;;;4971098;28;20464;-80
2023/12/08 04:48:21;;;;;;;7.35;3.35;;;3.10;99.90;;;;;;4971013;28;20423;-80
2023/12/08 04:50:51;;;;;;;8.00;3.63;;;3.10;99.90;;;;;;4954508;29;20058;-80
2023/12/08 04:53:18;;;;;;;6.60;3.20;;;3.10;99.90;;;;;;4938887;29;20054;-79
2023/12/08 04:55:45;;;;;;;8.43;3.70;;;3.10;99.90;;;;;;4938430;29;20452;-81
2023/12/08 04:58:12;;;;;;;7.30;3.50;;;3.10;99.90;;;;;;4954907;28;20066;-80
2023/12/08 05:00:39;;;;;;;7.75;3.35;;;3.10;99.90;;;;;;4939454;29;20049;-80
2023/12/08 05:03:07;;;;;;;8.30;3.95;;;3.10;99.90;;;;;;4939471;29;20043;-79
2023/12/08 05:05:36;;;;;;;7.55;3.60;;;3.10;99.90;;;;;;4943446;29;20053;-80
2023/12/08 05:08:04;;;;;;;5.32;2.45;;;3.10;99.90;;;;;;4954988;29;20126;-80
2023/12/08 05:10:32;;;;;;;6.22;2.88;;;3.10;99.90;;;;;;4954869;29;20054;-80
2023/12/08 05:12:59;;;;;;;7.55;3.60;;;3.10;99.90;;;;;;4970593;28;20444;-80
2023/12/08 05:15:26;;;;;;;5.90;2.85;;;3.20;99.90;;;;;;4954364;28;20047;-80
2023/12/08 05:17:53;;;;;;;7.93;3.33;;;3.10;99.90;;;;;;4954130;28;20055;-79
2023/12/08 05:20:20;;;;;;;8.00;3.20;;;3.20;99.90;;;;;;4938161;29;20050;-79
2023/12/08 05:22:47;;;;;;;7.38;3.65;;;3.20;99.90;;;;;;4938110;29;20050;-80
2023/12/08 05:25:14;;;;;;;7.97;3.67;;;3.20;99.90;;;;;;4954069;29;20483;-79
2023/12/08 05:27:41;;;;;;;6.82;3.05;;;3.20;99.90;;;;;;4939033;29;20043;-79
2023/12/08 05:30:09;;;;;;;5.78;3.15;;;3.20;99.90;;;;;;4962676;28;20058;-79
2023/12/08 05:32:36;;;;;;;6.63;3.58;;;3.20;99.90;;;;;;4937786;29;20150;-79
2023/12/08 05:35:04;;;;;;;6.72;3.08;;;3.20;99.90;;;;;;4969994;28;20121;-80
2023/12/08 05:37:31;;;;;;;7.10;3.00;;;3.20;99.90;;;;;;4937803;29;20051;-79
2023/12/08 05:39:58;;;;;;;7.18;3.38;;;3.20;99.90;;;;;;4938176;29;20046;-80
2023/12/08 05:42:28;;;;;;;6.72;3.22;;;3.20;99.90;;;;;;4938184;29;20102;-79
2023/12/08 05:44:55;;;;;;;8.35;4.10;;;3.20;99.90;;;;;;4969867;28;20050;-79
2023/12/08 05:47:22;;;;;;;7.95;3.70;;;3.20;99.90;;;;;;4954001;29;20439;-79
2023/12/08 05:49:50;;;;;;;9.50;3.92;;;3.20;99.90;;;;;;4937837;29;20492;-80
2023/12/08 05:52:17;;;;;;;7.65;3.92;;;3.20;99.90;;;;;;4953691;29;20090;-80
2023/12/08 05:54:44;;;;;;;7.35;3.30;;;3.20;99.90;;;;;;4938099;29;20078;-79
2023/12/08 05:57:13;;;;;;;6.43;3.60;;;3.20;99.90;;;;;;4954151;28;20050;-80
2023/12/08 05:59:44;;;;;;;8.07;4.20;;;3.20;99.90;;;;;;4953425;29;20079;-80
2023/12/08 06:02:14;;;;;;;6.18;3.05;;;3.20;99.90;;;;;;4952811;29;20044;-81
2023/12/08 06:04:43;;;;;;;11.18;4.15;;;3.20;99.90;;;;;;4953360;29;20051;-80
2023/12/08 06:07:10;;;;;;;6.90;3.40;;;3.20;99.90;;;;;;4938037;29;20079;-79
2023/12/08 06:09:38;;;;;;;6.45;3.25;;;3.20;99.90;;;;;;4969481;28;20055;-80
2023/12/08 06:12:05;;;;;;;6.95;3.63;;;3.20;99.90;;;;;;4937830;29;20047;-79
2023/12/08 06:14:35;;;;;;;6.25;3.40;;;3.20;99.90;;;;;;4953735;29;20073;-79
2023/12/08 06:17:05;;;;;;;6.82;3.90;;;3.30;99.90;;;;;;4953624;28;20555;-79
2023/12/08 06:19:34;;;;;;;7.35;3.97;;;3.30;99.90;;;;;;4941666;29;20114;-79
2023/12/08 06:22:01;;;;;;;9.35;4.20;;;3.20;99.90;;;;;;4941062;29;20051;-80
2023/12/08 06:24:28;;;;;;;7.57;3.75;;;3.30;99.90;;;;;;4941290;29;20098;-79
2023/12/08 06:26:56;;;;;;;8.35;3.90;;;3.30;99.90;;;;;;4941719;28;20563;-80
2023/12/08 06:29:23;;;;;;;7.47;3.58;;;3.30;99.90;;;;;;4957536;29;20482;-80
2023/12/08 06:31:50;;;;;;;6.32;3.50;;;3.30;99.90;;;;;;4941159;29;20097;-80
2023/12/08 06:34:17;;;;;;;9.90;4.97;;;3.30;99.90;;;;;;4941187;29;20047;-80
2023/12/08 06:36:46;;;;;;;8.90;4.20;;;3.30;99.90;;;;;;4940946;29;20047;-80
2023/12/08 06:39:14;;;;;;;9.75;4.38;;;3.30;99.90;;;;;;4941274;29;20043;-80
2023/12/08 06:41:41;;;;;;;7.43;3.85;;;3.30;99.90;;;;;;4947088;28;20043;-81
2023/12/08 06:44:09;;;;;;;8.88;4.00;;;3.30;99.90;;;;;;4957194;28;20062;-80
2023/12/08 06:46:36;;;;;;;9.75;4.72;;;3.30;99.90;;;;;;4956934;29;20050;-80
2023/12/08 06:49:03;;;;;;;8.38;4.10;;;3.30;99.90;;;;;;4941285;29;20079;-79
2023/12/08 06:51:33;;;;;;;6.68;3.60;;;3.30;99.90;;;;;;4956614;29;20059;-80
2023/12/08 06:54:00;;;;;;;8.45;3.85;;;3.40;99.90;;;;;;4925463;29;20141;-79
2023/12/08 06:56:27;;;;;;;7.70;3.38;;;3.40;99.90;;;;;;4956880;28;20149;-80
2023/12/08 06:58:54;;;;;;;6.85;3.50;;;3.40;99.90;;;;;;4957077;29;20070;-80
2023/12/08 07:01:22;;;;;;;7.22;3.58;;;3.40;99.90;;;;;;4941104;29;20130;-80
2023/12/08 07:03:49;;;;;;;8.68;4.50;;;3.40;99.90;;;;;;4940883;29;20044;-80
2023/12/08 07:06:17;;;;;;;9.20;4.03;;;3.40;99.90;;;;;;4940730;29;20058;-79
2023/12/08 07:08:44;;;;;;;11.57;3.92;;;3.40;99.90;;;;;;4924777;29;20055;-80
2023/12/08 07:11:14;;;;;;;10.55;5.03;;;3.40;99.90;;;;;;4956310;28;20114;-80
2023/12/08 07:13:41;;;;;;;8.93;4.45;;;3.40;99.90;;;;;;4940525;29;20039;-80
2023/12/08 07:16:09;;;;;;;7.70;4.05;;;3.40;99.90;;;;;;4953703;29;20078;-79
2023/12/08 07:18:37;;;;;;;7.30;3.40;;;3.40;99.90;;;;;;4940999;29;20047;-78
2023/12/08 07:21:05;;;;;;;8.88;3.90;;;3.40;99.90;;;;;;4972616;28;20460;-79
2023/12/08 07:23:33;;;;;;;7.38;3.70;;;3.50;99.90;;;;;;4932819;29;20047;-79
2023/12/08 07:26:06;;;;;;;8.70;4.50;;;3.50;99.90;;;;;;4940493;29;20149;-78
2023/12/08 07:28:33;;;;;;;11.23;5.50;;;3.50;99.90;;;;;;4955961;28;20484;-79
2023/12/08 07:31:00;;;;;;;10.60;4.57;;;3.50;99.90;;;;;;4924226;29;20047;-79
2023/12/08 07:33:27;;;;;;;8.63;4.53;;;3.50;99.90;;;;;;4940629;29;20043;-79
2023/12/08 07:35:55;;;;;;;12.15;5.88;;;3.50;99.90;;;;;;4924382;29;20102;-79
2023/12/08 07:38:22;;;;;;;8.75;4.43;;;3.50;99.90;;;;;;4924411;29;20039;-79
2023/12/08 07:40:49;;;;;;;9.02;4.40;;;3.50;99.90;;;;;;4939974;29;20047;-79
2023/12/08 07:43:16;;;;;;;9.05;4.63;;;3.50;99.90;;;;;;4924409;29;20045;-79
2023/12/08 07:45:50;;;;;;;10.43;5.10;;;3.50;99.90;;;;;;4940109;29;20102;-79
2023/12/08 07:48:17;;;;;;;9.90;5.25;;;3.50;99.90;;;;;;4956846;29;20133;-79
2023/12/08 07:50:44;;;;;;;12.10;5.80;;;3.50;99.90;;;;;;4940015;28;20133;-79
2023/12/08 07:53:11;;;;;;;9.68;4.70;;;3.50;99.90;;;;;;4939663;29;20047;-80
2023/12/08 07:55:38;;;;;;;9.82;4.32;;;3.50;99.90;;;;;;4939672;29;20039;-80
2023/12/08 07:58:06;;;;;;;10.02;4.85;;;3.50;99.90;;;;;;4955127;28;20491;-80
2023/12/08 08:00:33;;;;;;;10.32;4.63;;;3.60;99.90;;;;;;4939471;28;20587;-80
2023/12/08 08:03:00;;;;;;;9.15;4.20;;;3.60;99.90;;;;;;4955262;28;20082;-79
2023/12/08 08:05:27;;;;;;;11.57;4.90;;;3.60;99.90;;;;;;4939795;29;20051;-80
2023/12/08 08:07:55;;;;;;;7.97;3.47;;;3.60;99.90;;;;;;4939443;29;20488;-79
2023/12/08 08:10:22;;;;;;;10.35;4.60;;;3.60;99.90;;;;;;4939901;29;20094;-80
2023/12/08 08:12:49;;;;;;;8.60;5.00;;;3.60;99.90;;;;;;4939293;29;20393;-79
2023/12/08 08:15:16;;;;;;;8.02;3.95;;;3.60;99.90;;;;;;4971101;28;20054;-79
2023/12/08 08:17:43;;;;;;;8.45;3.63;;;3.70;99.90;;;;;;4923286;29;20055;-79
2023/12/08 08:20:11;;;;;;;9.55;4.22;;;3.70;99.90;;;;;;4939406;29;20050;-80
2023/12/08 08:22:38;;;;;;;7.90;3.90;;;3.70;99.90;;;;;;4940892;28;20058;-79
2023/12/08 08:25:06;;;;;;;9.07;3.85;;;3.70;99.90;;;;;;4962649;28;20480;-79
2023/12/08 08:27:33;;;;;;;8.52;3.95;;;3.70;99.90;;;;;;4952536;29;20521;-79
2023/12/08 08:30:02;;;;;;;7.40;3.67;;;3.70;99.90;;;;;;4938984;29;20047;-79
2023/12/08 08:32:31;;;;;;;10.18;4.20;;;3.70;99.90;;;;;;4939559;29;20121;-79
2023/12/08 08:34:58;;;;;;;9.10;4.43;;;3.70;99.90;;;;;;4924098;29;20618;-79
2023/12/08 08:37:26;;;;;;;8.38;3.75;;;3.80;99.90;;;;;;4943036;29;20043;-78
2023/12/08 08:39:54;;;;;;;9.77;5.00;;;3.80;99.90;;;;;;4942751;28;20047;-78
2023/12/08 08:42:21;;;;;;;11.55;6.22;;;3.80;99.90;;;;;;4955337;29;20113;-79
2023/12/08 08:44:50;;;;;;;11.57;5.50;;;3.80;99.90;;;;;;4938937;29;20039;-79
2023/12/08 08:47:19;;;;;;;10.70;5.35;;;3.80;99.90;;;;;;4923375;29;20061;-79
2023/12/08 08:49:46;;;;;;;13.77;7.32;;;3.80;99.90;;;;;;4938886;29;20062;-78
2023/12/08 08:52:14;;;;;;;9.85;5.43;;;3.80;99.90;;;;;;4938996;29;20055;-79
2023/12/08 08:54:44;;;;;;;12.13;5.97;;;3.80;99.90;;;;;;4923287;29;20444;-82
2023/12/08 08:57:13;;;;;;;10.00;4.40;;;3.80;99.90;;;;;;4939059;29;20121;-79
2023/12/08 08:59:41;;;;;;;9.60;4.32;;;3.90;99.90;;;;;;4938603;29;20094;-79
2023/12/08 09:02:08;;;;;;;7.47;3.33;;;3.90;99.90;;;;;;4944575;29;20455;-80
2023/12/08 09:04:35;;;;;;;10.25;4.13;;;3.90;99.90;;;;;;4954440;29;20143;-81
2023/12/08 09:07:03;;;;;;;8.00;3.50;;;3.90;99.90;;;;;;4954449;29;20410;-82
2023/12/08 09:09:30;;;;;;;7.32;3.08;;;3.90;99.90;;;;;;4938590;29;20051;-82
2023/12/08 09:11:57;;;;;;;8.60;4.15;;;3.90;99.90;;;;;;4938818;28;20055;-81
2023/12/08 09:14:25;;;;;;;6.72;3.25;;;4.00;99.90;;;;;;4954266;28;20057;-81
2023/12/08 09:16:51;;;;;;;7.13;3.30;;;4.00;99.90;;;;;;4907610;29;20051;-81
2023/12/08 09:19:19;;;;;;;7.78;3.85;;;4.00;99.90;;;;;;4945201;29;20031;-81
2023/12/08 09:21:46;;;;;;;7.80;3.35;;;4.00;99.90;;;;;;4930107;29;20043;-82
2023/12/08 09:24:21;;;;;;;8.13;3.40;;;4.10;99.90;;;;;;4938165;29;20146;-80
2023/12/08 09:26:49;;;;;;;7.35;3.67;;;4.10;99.90;;;;;;4922804;29;20039;-81
2023/12/08 09:29:16;;;;;;;6.13;2.90;;;4.10;99.90;;;;;;4937984;29;20480;-80
2023/12/08 09:31:44;;;;;;;6.30;2.85;;;4.10;99.90;;;;;;4937891;29;20507;-82
2023/12/08 09:34:13;;;;;;;6.22;2.97;;;4.10;99.90;;;;;;4938238;29;20135;-81
2023/12/08 09:36:41;;;;;;;6.82;3.05;;;4.10;99.90;;;;;;4937799;29;20102;-79
2023/12/08 09:39:28;;;;;;;6.47;3.13;;;4.20;99.90;;;;;;4937958;29;20555;-82
2023/12/08 09:41:59;;;;;;;7.50;2.58;;;4.20;99.90;;;;;;4937876;29;20066;-82
2023/12/08 09:44:27;;;;;;;6.05;2.78;;;4.20;99.90;;;;;;4947446;29;20567;-83
2023/12/08 09:46:56;;;;;;;6.70;2.47;;;4.20;99.90;;;;;;4968521;28;20047;-81
2023/12/08 09:49:29;;;;;;;6.47;2.67;;;4.20;99.90;;;;;;4945400;28;20145;-81
2023/12/08 09:56:25;;;;;;;4.47;1.67;;;4.30;99.90;;;;;;4956163;29;20026;-90
2023/12/08 09:58:55;;;;;;;4.95;2.15;;;4.30;99.90;;;;;;4938920;29;20050;-89
2023/12/08 10:01:25;;;;;;;5.45;2.65;;;4.30;99.90;;;;;;4938800;29;20039;-92
2023/12/08 10:03:52;;;;;;;5.85;2.40;;;4.40;99.90;;;;;;4938936;29;20082;-88
2023/12/08 10:06:53;;;;;;;6.18;2.70;;;4.40;99.90;;;;;;4955313;29;20043;-96
2023/12/08 10:09:35;;;;;;;6.65;2.65;;;4.40;99.90;;;;;;4946822;28;20043;-92
2023/12/08 10:12:02;;;;;;;6.47;2.08;;;4.40;99.90;;;;;;4938910;29;20082;-85
2023/12/08 10:14:49;;;;;;;5.57;2.35;;;4.50;99.90;;;;;;4938812;29;20043;-93
2023/12/08 10:17:26;;;;;;;5.45;2.53;;;4.50;99.90;;;;;;4938425;29;20055;-95
2023/12/08 10:20:08;;;;;;;;;;;4.50;99.90;;;;;;4955350;29;20176;-91
2023/12/08 10:22:50;;;;;;;4.82;2.08;;;4.50;99.90;;;;;;4924238;29;19969;-86
2023/12/08 10:25:31;;;;;;;5.68;2.10;;;4.50;99.90;;;;;;4938973;29;20051;-91
2023/12/08 10:28:24;;;;;;;5.07;2.17;;;4.50;99.90;;;;;;4930614;29;20051;-86
2023/12/08 10:30:51;;;;;;;5.45;2.70;;;4.60;99.90;;;;;;4938603;29;20058;-87
2023/12/08 10:33:25;;;;;;;6.72;2.50;;;4.70;99.90;;;;;;4954647;29;20055;-82
2023/12/08 10:35:52;;;;;;;5.38;2.38;;;4.70;99.90;;;;;;4938147;29;20070;-82
2023/12/08 10:38:23;;;;;;;10.80;3.35;;;4.70;99.90;;;;;;4937839;29;20043;-90
2023/12/08 10:40:55;;;;;;;7.68;4.03;;;4.80;99.90;;;;;;4938980;29;20513;-86
2023/12/08 10:43:40;;;;;;;8.30;3.40;;;4.80;99.90;;;;;;4954410;29;20079;-95
2023/12/08 10:46:11;;;;;;;7.60;3.28;;;4.80;99.90;;;;;;4939905;29;20055;-93
2023/12/08 10:48:39;;;;;;;9.20;4.40;;;4.80;99.90;;;;;;4957676;29;20055;-89
2023/12/08 10:51:13;;;;;;;14.18;6.15;;;4.90;99.90;;;;;;4942754;29;20503;-91
2023/12/08 10:54:10;;;;;;;12.80;5.72;;;4.90;99.90;;;;;;4922476;29;20073;-83
2023/12/08 10:56:37;;;;;;;12.68;5.85;;;4.90;99.90;;;;;;4937519;29;20502;-78
2023/12/08 10:59:07;;;;;;;14.10;6.25;;;4.90;99.90;;;;;;4937134;29;20126;-78
2023/12/08 11:01:35;;;;;;;17.02;7.47;;;5.00;99.90;;;;;;4937369;29;20395;-78
2023/12/08 11:04:05;;;;;;;13.55;6.68;;;5.00;99.90;;;;;;4937287;29;20043;-78
2023/12/08 11:06:38;;;;;;;14.10;6.25;;;5.00;99.90;;;;;;4941016;29;20551;-81
2023/12/08 11:09:12;;;;;;;17.40;7.63;;;5.00;99.90;;;;;;4941153;29;20055;-87
2023/12/08 11:11:48;;;;;;;16.95;7.18;;;5.00;99.90;;;;;;4941372;29;20102;-89
2023/12/08 11:14:32;;;;;;;17.63;7.88;;;5.10;99.90;;;;;;4957911;29;20550;-87
2023/12/08 11:17:06;;;;;;;15.18;6.90;;;5.10;99.90;;;;;;4935893;29;20154;-84
2023/12/08 11:19:45;;;;;;;14.57;6.15;;;5.20;99.90;;;;;;4936401;29;20043;-90
2023/12/08 11:22:13;;;;;;;18.00;7.97;;;5.20;99.90;;;;;;4973307;28;20106;-86
2023/12/08 11:24:44;;;;;;;22.98;9.10;;;5.20;99.90;;;;;;4973218;28;20051;-87
2023/12/08 11:28:02;;;;;;;22.60;8.40;;;5.20;99.90;;;;;;4941668;29;20353;-89
2023/12/08 11:31:26;;;;;;;17.10;7.63;;;5.30;99.90;;;;;;4874846;29;20052;-90
2023/12/08 11:35:19;;;;;;;18.50;6.80;;;5.30;99.90;;;;;;4899486;29;20051;-89
2023/12/08 11:38:11;;;;;;;15.05;6.15;;;5.40;99.90;;;;;;4898773;29;20067;-83
2023/12/08 11:41:15;;;;;;;18.02;7.07;;;5.40;99.90;;;;;;4929103;29;20055;-95
2023/12/08 11:44:05;;;;;;;16.88;7.75;;;5.50;99.90;;;;;;4941131;29;20047;-90
2023/12/08 11:46:40;;;;;;;17.40;7.00;;;5.50;99.90;;;;;;4941809;29;20055;-90
2023/12/08 11:49:11;;;;;;;16.92;6.07;;;5.50;99.90;;;;;;4941331;29;20137;-83
2023/12/08 11:51:38;;;;;;;15.45;6.68;;;5.50;99.90;;;;;;4943648;28;20054;-84
2023/12/08 11:54:06;;;;;;;15.40;6.50;;;5.60;99.90;;;;;;4940558;29;20404;-85
2023/12/08 11:56:41;;;;;;;14.52;6.57;;;5.60;99.90;;;;;;4940258;29;20118;-82
2023/12/08 11:59:19;;;;;;;16.30;8.00;;;5.70;99.90;;;;;;4939932;29;20297;-83
2023/12/08 12:01:47;;;;;;;18.60;7.35;;;5.70;99.90;;;;;;4956006;29;20049;-82
2023/12/08 12:04:16;;;;;;;19.02;7.55;;;5.70;99.90;;;;;;4941486;29;20043;-82
2023/12/08 12:06:43;;;;;;;19.65;7.90;;;5.80;99.90;;;;;;4939156;29;20048;-83
2023/12/08 12:09:13;;;;;;;19.08;7.07;;;5.80;99.90;;;;;;4940947;29;20085;-83
2023/12/08 12:11:41;;;;;;;16.90;6.93;;;5.80;99.90;;;;;;4940509;28;20043;-83
2023/12/08 12:14:10;;;;;;;15.43;5.90;;;5.80;99.90;;;;;;4938789;28;20047;-82
2023/12/08 12:16:37;;;;;;;14.50;5.65;;;5.80;99.90;;;;;;4971384;28;20135;-82
2023/12/08 12:19:04;;;;;;;14.15;5.57;;;5.80;99.90;;;;;;4942944;28;20047;-83
2023/12/08 12:21:32;;;;;;;12.02;4.82;;;5.90;99.90;;;;;;4939702;29;20047;-84
2023/12/08 12:23:58;;;;;;;13.63;4.78;;;5.90;99.90;;;;;;4940123;29;20042;-80
2023/12/08 12:26:26;;;;;;;13.13;5.55;;;5.90;99.90;;;;;;4939623;29;20043;-82
2023/12/08 12:28:53;;;;;;;13.63;5.57;;;6.00;99.90;;;;;;4939433;29;20059;-81
2023/12/08 12:31:20;;;;;;;17.15;7.72;;;6.00;99.90;;;;;;4939751;29;20061;-82
2023/12/08 12:33:47;;;;;;;15.25;7.07;;;6.00;99.90;;;;;;4939221;29;20062;-81
2023/12/08 12:36:16;;;;;;;14.48;6.43;;;6.00;99.90;;;;;;4944922;29;20055;-81
2023/12/08 12:38:43;;;;;;;17.35;7.57;;;6.10;99.90;;;;;;4939491;29;20047;-81
2023/12/08 12:41:25;;;;;;;17.55;6.78;;;6.10;99.90;;;;;;4938469;29;20047;-82
2023/12/08 12:43:56;;;;;;;16.13;5.97;;;6.20;99.90;;;;;;4938750;29;20059;-79
2023/12/08 12:46:27;;;;;;;12.68;5.72;;;6.20;99.90;;;;;;4954762;29;20043;-82
2023/12/08 12:48:55;;;;;;;12.57;5.10;;;6.20;99.90;;;;;;4956419;28;20074;-82
2023/12/08 12:51:36;;;;;;;14.00;5.90;;;6.20;99.90;;;;;;4939090;29;20110;-83
2023/12/08 12:54:06;;;;;;;21.70;5.65;;;6.30;99.90;;;;;;4942854;28;20051;-82
2023/12/08 12:56:34;;;;;;;14.30;5.50;;;6.30;99.90;;;;;;4949238;29;20058;-82
2023/12/08 12:59:09;;;;;;;14.98;6.72;;;6.30;99.90;;;;;;4938526;29;20040;-82
2023/12/08 13:01:37;;;;;;;17.85;7.50;;;6.30;99.90;;;;;;4938815;29;20055;-83
2023/12/08 13:04:04;;;;;;;21.73;7.53;;;6.40;99.90;;;;;;4938736;29;20036;-83
2023/12/08 13:06:33;;;;;;;22.98;9.43;;;6.40;99.90;;;;;;4924731;29;20069;-83
2023/12/08 13:09:03;;;;;;;22.15;9.45;;;6.40;99.90;;;;;;4954622;29;20047;-81
2023/12/08 13:11:30;;;;;;;23.73;9.10;;;6.40;99.90;;;;;;4948767;28;20114;-82
2023/12/08 13:13:57;;;;;;;19.95;9.85;;;6.40;99.90;;;;;;4970541;28;20105;-83